createdAt,value
2018-05-04T00:00:37.828Z,20.3
2018-05-04T00:01:27.876Z,20.3
2018-05-04T00:02:18.201Z,20.3
2018-05-04T00:03:08.302Z,20.3
2018-05-04T00:03:58.075Z,20.3
2018-05-04T00:04:48.424Z,20.3
2018-05-04T00:05:38.519Z,20.3
2018-05-04T00:06:28.524Z,20.3
2018-05-04T00:07:18.598Z,20.3
2018-05-04T00:08:08.641Z,20.2
2018-05-04T00:08:58.471Z,20.2
2018-05-04T00:09:48.509Z,20.2
2018-05-04T00:10:38.875Z,20.2
2018-05-04T00:11:28.649Z,20.1
2018-05-04T00:12:18.706Z,20.1
2018-05-04T00:13:09.041Z,20.1
2018-05-04T00:13:58.555Z,20.1
2018-05-04T00:14:49.157Z,20.1
2018-05-04T00:15:39.225Z,20.1
2018-05-04T00:16:29.301Z,20.1
2018-05-04T00:17:19.359Z,20.1
2018-05-04T00:18:09.139Z,20.1
2018-05-04T00:18:59.206Z,20.1
2018-05-04T00:19:48.978Z,20.1
2018-05-04T00:20:39.614Z,20
2018-05-04T00:21:29.679Z,20
2018-05-04T00:22:19.481Z,20
2018-05-04T00:23:09.801Z,20
2018-05-04T00:23:59.860Z,20
2018-05-04T00:24:49.942Z,20
2018-05-04T00:25:40.003Z,20
2018-05-04T00:26:29.785Z,20
2018-05-04T00:27:20.151Z,19.9
2018-05-04T00:28:10.172Z,19.9
2018-05-04T00:29:00.073Z,19.9
2018-05-04T00:29:50.027Z,19.9
2018-05-04T00:30:40.379Z,19.9
2018-05-04T00:31:30.509Z,19.9
2018-05-04T00:32:20.497Z,19.9
2018-05-04T00:33:10.569Z,19.9
2018-05-04T00:34:00.634Z,19.9
2018-05-04T00:34:50.408Z,19.9
2018-05-04T00:35:40.578Z,19.9
2018-05-04T00:36:30.822Z,19.8
2018-05-04T00:37:20.882Z,19.9
2018-05-04T00:38:10.697Z,19.8
2018-05-04T00:39:00.755Z,19.8
2018-05-04T00:39:51.101Z,19.8
2018-05-04T00:40:40.865Z,19.8
2018-05-04T00:41:31.217Z,19.8
2018-05-04T00:42:21.307Z,19.8
2018-05-04T00:43:11.083Z,19.8
2018-05-04T00:44:01.392Z,19.8
2018-05-04T00:44:51.488Z,19.8
2018-05-04T00:45:40.988Z,19.8
2018-05-04T00:46:31.588Z,19.8
2018-05-04T00:47:21.648Z,19.8
2018-05-04T00:48:11.725Z,19.8
2018-05-04T00:49:01.253Z,19.8
2018-05-04T00:49:51.643Z,19.8
2018-05-04T00:50:41.338Z,19.8
2018-05-04T00:51:31.723Z,19.8
2018-05-04T00:52:22.070Z,19.8
2018-05-04T00:53:12.098Z,19.7
2018-05-04T00:54:01.631Z,19.8
2018-05-04T00:54:51.971Z,19.8
2018-05-04T00:55:42.304Z,19.8
2018-05-04T00:56:32.079Z,19.7
2018-05-04T00:57:21.854Z,19.8
2018-05-04T00:58:12.472Z,19.7
2018-05-04T00:59:02.257Z,19.7
2018-05-04T00:59:52.617Z,19.7
2018-05-04T01:00:42.670Z,19.7
2018-05-04T01:01:32.740Z,19.7
2018-05-04T01:02:22.812Z,19.7
2018-05-04T01:03:12.609Z,19.7
2018-05-04T01:04:02.361Z,19.7
2018-05-04T01:04:53.012Z,19.7
2018-05-04T01:05:42.792Z,19.7
2018-05-04T01:06:33.115Z,19.7
2018-05-04T01:07:22.912Z,19.7
2018-05-04T01:08:13.285Z,19.7
2018-05-04T01:09:03.317Z,19.7
2018-05-04T01:09:53.384Z,19.7
2018-05-04T01:10:43.462Z,19.7
2018-05-04T01:11:32.953Z,19.7
2018-05-04T01:12:23.587Z,19.7
2018-05-04T01:13:13.647Z,19.7
2018-05-04T01:14:03.485Z,19.7
2018-05-04T01:14:53.199Z,19.6
2018-05-04T01:15:43.859Z,19.7
2018-05-04T01:16:33.029Z,19.7
2018-05-04T01:17:23.967Z,19.7
2018-05-04T01:18:13.749Z,19.7
2018-05-04T01:19:03.830Z,19.7
2018-05-04T01:19:54.161Z,19.7
2018-05-04T01:20:44.212Z,19.6
2018-05-04T01:21:34.310Z,19.6
2018-05-04T01:22:24.331Z,19.6
2018-05-04T01:23:14.394Z,19.6
2018-05-04T01:24:04.469Z,19.6
2018-05-04T01:24:54.527Z,19.6
2018-05-04T01:25:44.296Z,19.6
2018-05-04T01:26:34.663Z,19.6
2018-05-04T01:27:24.709Z,19.6
2018-05-04T01:28:14.772Z,19.6
2018-05-04T01:29:04.831Z,19.6
2018-05-04T01:29:54.365Z,19.6
2018-05-04T01:30:44.695Z,19.6
2018-05-04T01:31:34.739Z,19.6
2018-05-04T01:32:25.092Z,19.6
2018-05-04T01:33:15.160Z,19.6
2018-05-04T01:34:04.678Z,19.6
2018-05-04T01:34:54.994Z,19.6
2018-05-04T01:35:45.351Z,19.6
2018-05-04T01:36:35.448Z,19.6
2018-05-04T01:37:25.196Z,19.6
2018-05-04T01:38:15.563Z,19.6
2018-05-04T01:39:05.601Z,19.6
2018-05-04T01:39:55.652Z,19.6
2018-05-04T01:40:45.175Z,19.6
2018-05-04T01:41:35.812Z,19.6
2018-05-04T01:42:25.869Z,19.6
2018-05-04T01:43:15.661Z,19.6
2018-05-04T01:44:05.989Z,19.6
2018-05-04T01:44:55.489Z,19.6
2018-05-04T01:45:46.109Z,19.5
2018-05-04T01:46:36.170Z,19.5
2018-05-04T01:47:26.254Z,19.5
2018-05-04T01:48:16.032Z,19.5
2018-05-04T01:49:06.095Z,19.5
2018-05-04T01:49:56.429Z,19.5
2018-05-04T01:50:46.498Z,19.4
2018-05-04T01:51:35.997Z,19.4
2018-05-04T01:52:26.364Z,19.4
2018-05-04T01:53:15.834Z,19.4
2018-05-04T01:54:06.499Z,19.4
2018-05-04T01:54:56.840Z,19.4
2018-05-04T01:55:46.593Z,19.4
2018-05-04T01:56:36.674Z,19.4
2018-05-04T01:57:27.044Z,19.4
2018-05-04T01:58:17.126Z,19.4
2018-05-04T01:59:07.147Z,19.4
2018-05-04T01:59:57.196Z,19.4
2018-05-04T02:00:46.994Z,19.4
2018-05-04T02:01:37.328Z,19.4
2018-05-04T02:02:27.388Z,19.4
2018-05-04T02:03:17.454Z,19.4
2018-05-04T02:04:07.543Z,19.4
2018-05-04T02:04:57.393Z,19.4
2018-05-04T02:05:47.374Z,19.4
2018-05-04T02:06:37.421Z,19.3
2018-05-04T02:07:27.769Z,19.4
2018-05-04T02:08:17.550Z,19.4
2018-05-04T02:09:07.917Z,19.4
2018-05-04T02:09:57.421Z,19.3
2018-05-04T02:10:48.106Z,19.3
2018-05-04T02:11:37.801Z,19.3
2018-05-04T02:12:27.873Z,19.3
2018-05-04T02:13:18.251Z,19.3
2018-05-04T02:14:08.281Z,19.3
2018-05-04T02:14:58.348Z,19.3
2018-05-04T02:15:48.148Z,19.3
2018-05-04T02:16:38.213Z,19.3
2018-05-04T02:17:28.552Z,19.3
2018-05-04T02:18:18.333Z,19.3
2018-05-04T02:19:08.660Z,19.3
2018-05-04T02:19:58.728Z,19.3
2018-05-04T02:20:48.813Z,19.3
2018-05-04T02:21:38.838Z,19.3
2018-05-04T02:22:28.644Z,19.2
2018-05-04T02:23:18.730Z,19.3
2018-05-04T02:24:08.771Z,19.3
2018-05-04T02:24:59.122Z,19.3
2018-05-04T02:25:48.647Z,19.3
2018-05-04T02:26:38.964Z,19.3
2018-05-04T02:27:29.318Z,19.2
2018-05-04T02:28:19.107Z,19.2
2018-05-04T02:29:09.517Z,19.2
2018-05-04T02:29:59.501Z,19.2
2018-05-04T02:30:49.597Z,19.2
2018-05-04T02:31:39.645Z,19.2
2018-05-04T02:32:29.686Z,19.2
2018-05-04T02:33:19.206Z,19.2
2018-05-04T02:34:09.261Z,19.2
2018-05-04T02:34:59.897Z,19.1
2018-05-04T02:35:49.686Z,19.2
2018-05-04T02:36:40.024Z,19.1
2018-05-04T02:37:30.101Z,19.1
2018-05-04T02:38:20.177Z,19.1
2018-05-04T02:39:10.222Z,19.1
2018-05-04T02:40:00.269Z,19.1
2018-05-04T02:40:50.126Z,19.1
2018-05-04T02:41:40.110Z,19.1
2018-05-04T02:42:30.454Z,19.1
2018-05-04T02:43:20.528Z,19.1
2018-05-04T02:44:10.302Z,19.1
2018-05-04T02:45:00.386Z,19.1
2018-05-04T02:45:50.478Z,19.1
2018-05-04T02:46:40.799Z,19.1
2018-05-04T02:47:30.854Z,19.1
2018-05-04T02:48:20.620Z,19.1
2018-05-04T02:49:10.957Z,19.1
2018-05-04T02:50:00.759Z,19.1
2018-05-04T02:50:51.093Z,19.1
2018-05-04T02:51:40.922Z,19.1
2018-05-04T02:52:30.949Z,19.1
2018-05-04T02:53:21.004Z,19.1
2018-05-04T02:54:11.356Z,19.1
2018-05-04T02:55:01.412Z,19.1
2018-05-04T02:55:51.216Z,19.1
2018-05-04T02:56:41.544Z,19.1
2018-05-04T02:57:31.333Z,19.1
2018-05-04T02:58:21.718Z,19.1
2018-05-04T02:59:11.539Z,19
2018-05-04T03:00:01.238Z,19.1
2018-05-04T03:00:51.870Z,19.1
2018-05-04T03:01:41.922Z,19.1
2018-05-04T03:02:31.706Z,19.1
2018-05-04T03:03:22.063Z,19.1
2018-05-04T03:04:12.143Z,19.1
2018-05-04T03:05:02.228Z,19.1
2018-05-04T03:05:52.247Z,19.1
2018-05-04T03:06:42.038Z,19.1
2018-05-04T03:07:32.373Z,19.1
2018-05-04T03:08:22.432Z,19.1
2018-05-04T03:09:12.530Z,19.1
2018-05-04T03:10:02.590Z,19.1
2018-05-04T03:10:52.370Z,19.1
2018-05-04T03:11:42.684Z,19.1
2018-05-04T03:12:32.489Z,19.1
2018-05-04T03:13:22.289Z,19.1
2018-05-04T03:14:12.936Z,19.1
2018-05-04T03:15:02.939Z,19.1
2018-05-04T03:15:52.159Z,19.1
2018-05-04T03:16:43.086Z,19.1
2018-05-04T03:17:33.120Z,19.1
2018-05-04T03:18:22.946Z,19.1
2018-05-04T03:19:13.253Z,19.1
2018-05-04T03:20:03.318Z,19.1
2018-05-04T03:20:53.113Z,19.1
2018-05-04T03:21:43.476Z,19.1
2018-05-04T03:22:33.528Z,19.1
2018-05-04T03:23:23.389Z,19.1
2018-05-04T03:24:13.661Z,19.1
2018-05-04T03:25:03.700Z,19.2
2018-05-04T03:25:53.772Z,19.2
2018-05-04T03:26:43.584Z,19.2
2018-05-04T03:27:33.901Z,19.2
2018-05-04T03:28:23.654Z,19.3
2018-05-04T03:29:14.068Z,19.3
2018-05-04T03:30:03.820Z,19.3
2018-05-04T03:30:53.878Z,19.3
2018-05-04T03:31:43.940Z,19.3
2018-05-04T03:32:34.028Z,19.3
2018-05-04T03:33:24.050Z,19.3
2018-05-04T03:34:13.825Z,19.4
2018-05-04T03:35:04.477Z,19.4
2018-05-04T03:35:54.535Z,19.4
2018-05-04T03:36:44.585Z,19.4
2018-05-04T03:37:34.677Z,19.4
2018-05-04T03:38:24.842Z,19.5
2018-05-04T03:39:14.530Z,19.6
2018-05-04T03:40:04.876Z,19.6
2018-05-04T03:40:54.921Z,19.6
2018-05-04T03:41:44.731Z,19.6
2018-05-04T03:42:34.459Z,19.7
2018-05-04T03:43:25.106Z,19.7
2018-05-04T03:44:14.868Z,19.7
2018-05-04T03:45:04.683Z,19.8
2018-05-04T03:45:55.018Z,19.8
2018-05-04T03:46:45.365Z,19.8
2018-05-04T03:47:35.429Z,19.9
2018-05-04T03:48:25.494Z,19.9
2018-05-04T03:49:15.258Z,19.9
2018-05-04T03:50:05.069Z,19.9
2018-05-04T03:50:55.680Z,20
2018-05-04T03:51:45.191Z,20
2018-05-04T03:52:35.812Z,20.1
2018-05-04T03:53:25.863Z,20.1
2018-05-04T03:54:15.372Z,20.1
2018-05-04T03:55:05.991Z,20.1
2018-05-04T03:55:55.512Z,20.1
2018-05-04T03:56:46.135Z,20.2
2018-05-04T03:57:35.626Z,20.3
2018-05-04T03:58:25.667Z,20.3
2018-05-04T03:59:16.028Z,20.3
2018-05-04T04:00:06.116Z,20.3
2018-05-04T04:00:56.443Z,20.4
2018-05-04T04:01:46.239Z,20.4
2018-05-04T04:02:36.468Z,20.4
2018-05-04T04:03:26.397Z,20.4
2018-05-04T04:04:16.163Z,20.5
2018-05-04T04:05:06.499Z,20.5
2018-05-04T04:05:56.849Z,20.6
2018-05-04T04:06:46.885Z,20.6
2018-05-04T04:07:36.387Z,20.6
2018-05-04T04:08:26.747Z,20.6
2018-05-04T04:09:16.814Z,20.7
2018-05-04T04:10:06.866Z,20.7
2018-05-04T04:10:57.203Z,20.8
2018-05-04T04:11:46.710Z,20.8
2018-05-04T04:12:37.404Z,20.8
2018-05-04T04:13:27.388Z,20.8
2018-05-04T04:14:17.178Z,20.8
2018-05-04T04:15:07.537Z,20.8
2018-05-04T04:15:57.636Z,20.9
2018-05-04T04:16:47.662Z,20.9
2018-05-04T04:17:37.713Z,20.9
2018-05-04T04:18:27.774Z,20.9
2018-05-04T04:19:17.268Z,20.9
2018-05-04T04:20:07.926Z,20.9
2018-05-04T04:20:57.973Z,20.9
2018-05-04T04:21:47.816Z,20.9
2018-05-04T04:22:38.116Z,20.9
2018-05-04T04:23:28.160Z,20.9
2018-05-04T04:24:17.952Z,20.9
2018-05-04T04:25:08.305Z,21
2018-05-04T04:25:58.343Z,21
2018-05-04T04:26:48.214Z,21
2018-05-04T04:27:38.014Z,21
2018-05-04T04:28:28.552Z,21.1
2018-05-04T04:29:18.325Z,21
2018-05-04T04:30:08.105Z,21.1
2018-05-04T04:30:58.729Z,21.1
2018-05-04T04:31:48.877Z,21.1
2018-05-04T04:32:38.891Z,21.1
2018-05-04T04:36:48.906Z,21.2
2018-05-04T04:37:38.976Z,21.2
2018-05-04T04:38:29.296Z,21.2
2018-05-04T04:39:19.110Z,21.3
2018-05-04T04:40:09.463Z,21.3
2018-05-04T04:40:59.484Z,21.4
2018-05-04T04:41:49.564Z,21.4
2018-05-04T04:42:39.366Z,21.4
2018-05-04T04:43:29.218Z,21.6
2018-05-04T04:44:19.205Z,21.6
2018-05-04T04:45:09.267Z,21.7
2018-05-04T04:45:59.336Z,21.7
2018-05-04T04:46:49.470Z,21.8
2018-05-04T04:47:39.522Z,21.8
2018-05-04T04:48:30.170Z,21.9
2018-05-04T04:49:19.851Z,21.9
2018-05-04T04:50:10.184Z,21.9
2018-05-04T04:50:59.965Z,22
2018-05-04T04:51:50.330Z,22
2018-05-04T04:52:39.899Z,22.1
2018-05-04T04:53:30.170Z,22.1
2018-05-04T04:54:20.537Z,22.2
2018-05-04T04:55:10.287Z,22.2
2018-05-04T04:56:00.643Z,22.3
2018-05-04T04:56:50.413Z,22.3
2018-05-04T04:57:40.492Z,22.3
2018-05-04T04:58:30.567Z,22.3
2018-05-04T04:59:20.924Z,22.3
2018-05-04T05:00:10.957Z,22.4
2018-05-04T05:01:01.017Z,22.4
2018-05-04T05:01:51.211Z,22.4
2018-05-04T05:02:41.160Z,22.4
2018-05-04T05:03:30.951Z,22.4
2018-05-04T05:04:21.007Z,22.4
2018-05-04T05:05:11.066Z,22.4
2018-05-04T05:06:01.131Z,22.4
2018-05-04T05:06:51.164Z,22.4
2018-05-04T05:07:41.515Z,22.5
2018-05-04T05:08:31.588Z,22.5
2018-05-04T05:09:21.362Z,22.6
2018-05-04T05:10:11.440Z,22.6
2018-05-04T05:11:01.876Z,22.6
2018-05-04T05:11:51.574Z,22.6
2018-05-04T05:12:41.982Z,22.7
2018-05-04T05:13:32.529Z,22.8
2018-05-04T05:14:22.040Z,22.8
2018-05-04T05:15:11.821Z,22.9
2018-05-04T05:16:02.158Z,22.9
2018-05-04T05:16:51.940Z,23
2018-05-04T05:17:42.000Z,23.1
2018-05-04T05:18:32.063Z,23.1
2018-05-04T05:19:22.410Z,23.2
2018-05-04T05:20:12.191Z,23.3
2018-05-04T05:21:02.599Z,23.3
2018-05-04T05:21:53.039Z,23.4
2018-05-04T05:22:42.405Z,23.4
2018-05-04T05:23:32.462Z,23.5
2018-05-04T05:24:22.804Z,23.6
2018-05-04T05:25:12.596Z,23.6
2018-05-04T05:26:02.694Z,23.7
2018-05-04T05:26:52.701Z,23.7
2018-05-04T05:27:42.793Z,23.7
2018-05-04T05:28:33.145Z,23.8
2018-05-04T05:29:22.963Z,23.9
2018-05-04T05:30:13.295Z,23.9
2018-05-04T05:31:03.315Z,23.9
2018-05-04T05:31:53.090Z,23.9
2018-05-04T05:32:42.884Z,24
2018-05-04T05:33:33.206Z,24
2018-05-04T05:34:23.573Z,24.1
2018-05-04T05:35:13.653Z,24.1
2018-05-04T05:36:03.709Z,24.1
2018-05-04T05:36:53.186Z,24.2
2018-05-04T05:37:43.834Z,24.2
2018-05-04T05:38:33.324Z,24.3
2018-05-04T05:39:23.686Z,24.3
2018-05-04T05:40:14.050Z,24.4
2018-05-04T05:41:04.103Z,24.4
2018-05-04T05:41:53.876Z,24.5
2018-05-04T05:42:44.225Z,24.6
2018-05-04T05:43:34.282Z,24.7
2018-05-04T05:44:23.783Z,24.8
2018-05-04T05:45:14.405Z,24.9
2018-05-04T05:46:04.217Z,25
2018-05-04T05:46:54.245Z,25.1
2018-05-04T05:47:44.310Z,25.2
2018-05-04T05:48:34.687Z,25.3
2018-05-04T05:49:24.759Z,25.4
2018-05-04T05:50:14.798Z,25.4
2018-05-04T05:51:03.993Z,25.4
2018-05-04T05:51:54.872Z,25.5
2018-05-04T05:52:44.987Z,25.6
2018-05-04T05:53:34.578Z,25.6
2018-05-04T05:54:24.812Z,25.6
2018-05-04T05:55:15.175Z,25.6
2018-05-04T05:56:04.951Z,25.7
2018-05-04T05:56:55.012Z,25.8
2018-05-04T05:57:45.330Z,25.8
2018-05-04T05:58:35.414Z,25.8
2018-05-04T05:59:25.216Z,25.9
2018-05-04T06:00:15.533Z,26
2018-05-04T06:01:05.345Z,26.1
2018-05-04T06:01:55.737Z,26.2
2018-05-04T06:02:45.472Z,26.3
2018-05-04T06:03:35.795Z,26.4
2018-05-04T06:05:24.007Z,26.5
2018-05-04T06:05:34.607Z,26.6
2018-05-04T06:06:25.452Z,26.7
2018-05-04T06:07:15.240Z,26.7
2018-05-04T06:08:05.592Z,26.8
2018-05-04T06:08:55.612Z,26.9
2018-05-04T06:09:45.771Z,26.9
2018-05-04T06:10:35.764Z,27.1
2018-05-04T06:11:25.654Z,27.1
2018-05-04T06:12:15.902Z,27.2
2018-05-04T06:13:05.988Z,27.2
2018-05-04T06:13:56.018Z,27.3
2018-05-04T06:14:46.110Z,27.3
2018-05-04T06:15:36.167Z,27.3
2018-05-04T06:16:26.216Z,27.3
2018-05-04T06:17:16.310Z,27.4
2018-05-04T06:18:06.104Z,27.4
2018-05-04T06:18:56.404Z,27.5
2018-05-04T06:19:46.500Z,27.6
2018-05-04T06:20:36.526Z,27.6
2018-05-04T06:21:26.612Z,27.7
2018-05-04T06:22:16.411Z,27.7
2018-05-04T06:23:06.709Z,27.8
2018-05-04T06:23:56.785Z,27.8
2018-05-04T06:25:36.650Z,27.9
2018-05-04T06:26:26.411Z,27.9
2018-05-04T06:27:17.044Z,28
2018-05-04T06:28:07.180Z,28.1
2018-05-04T06:28:57.185Z,28.2
2018-05-04T06:29:46.977Z,28.3
2018-05-04T06:30:37.295Z,28.3
2018-05-04T06:31:27.386Z,28.4
2018-05-04T06:32:17.146Z,28.4
2018-05-04T06:33:07.212Z,28.5
2018-05-04T06:33:57.744Z,28.6
2018-05-04T06:34:47.621Z,28.6
2018-05-04T06:35:37.689Z,28.7
2018-05-04T06:36:27.482Z,28.8
2018-05-04T06:37:17.824Z,28.9
2018-05-04T06:38:07.926Z,29
2018-05-04T06:38:57.375Z,29.1
2018-05-04T06:39:48.341Z,29.3
2018-05-04T06:40:38.150Z,29.6
2018-05-04T06:41:28.130Z,30
2018-05-04T06:42:18.229Z,30.3
2018-05-04T06:43:08.247Z,30.4
2018-05-04T06:43:58.055Z,30.4
2018-05-04T06:44:47.813Z,30.5
2018-05-04T06:45:38.163Z,30.5
2018-05-04T06:46:28.532Z,30.6
2018-05-04T06:47:18.014Z,30.8
2018-05-04T06:48:08.667Z,31.4
2018-05-04T06:48:58.701Z,32.1
2018-05-04T06:49:48.496Z,32.6
2018-05-04T06:50:38.820Z,32.9
2018-05-04T06:51:28.914Z,33.1
2018-05-04T06:52:18.983Z,33
2018-05-04T06:53:08.548Z,33.1
2018-05-04T06:53:59.095Z,33.3
2018-05-04T06:54:48.893Z,33.3
2018-05-04T06:55:39.209Z,33.2
2018-05-04T06:56:29.074Z,33.1
2018-05-04T06:57:19.072Z,33
2018-05-04T06:58:09.133Z,33
2018-05-04T06:58:59.507Z,33.1
2018-05-04T06:59:49.258Z,33.1
2018-05-04T07:00:39.649Z,33.1
2018-05-04T07:01:29.672Z,33.1
2018-05-04T07:02:19.475Z,33.1
2018-05-04T07:03:09.235Z,33.1
2018-05-04T07:03:59.907Z,33.1
2018-05-04T07:04:49.378Z,33
2018-05-04T07:05:39.981Z,33
2018-05-04T07:06:30.044Z,33
2018-05-04T07:07:19.626Z,32.9
2018-05-04T07:08:10.184Z,33
2018-05-04T07:09:00.506Z,33.1
2018-05-04T07:09:50.314Z,33
2018-05-04T07:10:40.100Z,33
2018-05-04T07:11:30.161Z,32.9
2018-05-04T07:12:20.489Z,32.8
2018-05-04T07:13:10.283Z,32.6
2018-05-04T07:14:00.067Z,32.5
2018-05-04T07:14:50.435Z,32.4
2018-05-04T07:15:40.189Z,32.4
2018-05-04T07:16:30.890Z,32.4
2018-05-04T07:17:20.973Z,32.6
2018-05-04T07:18:10.939Z,32.7
2018-05-04T07:19:00.731Z,32.9
2018-05-04T07:19:51.080Z,33
2018-05-04T07:20:41.154Z,33.2
2018-05-04T07:21:31.203Z,33.4
2018-05-04T07:22:20.992Z,33.6
2018-05-04T07:23:11.322Z,33.8
2018-05-04T07:24:01.399Z,33.8
2018-05-04T07:24:51.459Z,33.8
2018-05-04T07:25:41.529Z,33.8
2018-05-04T07:26:31.639Z,34
2018-05-04T07:27:20.831Z,34.3
2018-05-04T07:28:11.462Z,34.6
2018-05-04T07:29:01.796Z,35
2018-05-04T07:29:51.946Z,35.7
2018-05-04T07:30:41.999Z,36.5
2018-05-04T07:31:31.981Z,37.2
2018-05-04T07:32:22.066Z,37.5
2018-05-04T07:33:11.568Z,37.5
2018-05-04T07:34:02.186Z,37.3
2018-05-04T07:34:52.286Z,37.2
2018-05-04T07:35:42.311Z,37.1
2018-05-04T07:36:31.800Z,37.2
2018-05-04T07:37:22.455Z,37.3
2018-05-04T07:38:12.490Z,37.5
2018-05-04T07:39:02.014Z,37.6
2018-05-04T07:39:52.451Z,37.7
2018-05-04T07:40:42.685Z,37.8
2018-05-04T07:41:32.763Z,37.8
2018-05-04T07:42:22.256Z,37.8
2018-05-04T07:43:13.349Z,37.6
2018-05-04T07:44:02.696Z,37.4
2018-05-04T07:44:52.465Z,37.4
2018-05-04T07:45:42.523Z,37.3
2018-05-04T07:46:33.148Z,37.1
2018-05-04T07:47:23.208Z,37
2018-05-04T07:48:13.294Z,36.9
2018-05-04T07:49:03.443Z,37
2018-05-04T07:49:53.404Z,37.1
2018-05-04T07:50:43.487Z,37.3
2018-05-04T07:51:33.275Z,37.3
2018-05-04T07:52:23.579Z,37.3
2018-05-04T07:53:13.670Z,37.4
2018-05-04T07:54:03.502Z,37.5
2018-05-04T07:54:53.232Z,37.6
2018-05-04T07:55:43.856Z,37.6
2018-05-04T07:56:33.647Z,37.5
2018-05-04T07:57:23.716Z,37.6
2018-05-04T07:58:13.761Z,37.6
2018-05-04T07:59:04.106Z,37.8
2018-05-04T07:59:54.175Z,37.9
2018-05-04T08:00:44.246Z,38
2018-05-04T08:01:34.019Z,38.1
2018-05-04T08:02:24.370Z,38.1
2018-05-04T08:03:14.416Z,38.1
2018-05-04T08:04:04.511Z,38
2018-05-04T08:04:54.553Z,37.9
2018-05-04T08:05:44.053Z,37.9
2018-05-04T08:06:34.712Z,38
2018-05-04T08:07:24.766Z,38
2018-05-04T08:08:14.808Z,38
2018-05-04T08:09:04.636Z,37.9
2018-05-04T08:09:54.961Z,37.9
2018-05-04T08:10:45.009Z,37.9
2018-05-04T08:11:34.808Z,37.9
2018-05-04T08:12:24.579Z,37.9
2018-05-04T08:13:14.921Z,37.9
2018-05-04T08:14:05.286Z,38
2018-05-04T08:14:54.903Z,38
2018-05-04T08:15:45.138Z,37.9
2018-05-04T08:16:35.213Z,38
2018-05-04T08:17:25.555Z,38.2
2018-05-04T08:18:15.333Z,38.4
2018-05-04T08:19:05.115Z,38.6
2018-05-04T08:19:55.440Z,38.7
2018-05-04T08:20:45.790Z,38.9
2018-05-04T08:21:35.289Z,39.2
2018-05-04T08:22:25.652Z,39.2
2018-05-04T08:23:15.129Z,39.2
2018-05-04T08:24:06.052Z,39.4
2018-05-04T08:24:55.838Z,39.8
2018-05-04T08:25:46.194Z,40.1
2018-05-04T08:26:36.261Z,40.1
2018-05-04T08:27:26.727Z,39.9
2018-05-04T08:28:15.226Z,39.8
2018-05-04T08:29:06.444Z,39.7
2018-05-04T08:29:55.943Z,39.8
2018-05-04T08:30:46.311Z,40
2018-05-04T08:31:36.647Z,40.9
2018-05-04T08:32:26.708Z,42.1
2018-05-04T08:33:16.591Z,43.3
2018-05-04T08:34:05.993Z,44.3
2018-05-04T08:34:56.912Z,45.3
2018-05-04T08:35:46.695Z,45.8
2018-05-04T08:36:36.465Z,45.4
2018-05-04T08:37:27.098Z,44.8
2018-05-04T08:38:16.875Z,44.5
2018-05-04T08:39:06.457Z,44.8
2018-05-04T08:39:56.710Z,45.1
2018-05-04T08:40:47.427Z,45.6
2018-05-04T08:41:37.520Z,46.4
2018-05-04T08:42:27.455Z,47.1
2018-05-04T08:43:18.248Z,47.4
2018-05-04T08:44:07.600Z,47.4
2018-05-04T08:44:57.403Z,46.9
2018-05-04T08:45:47.735Z,46.1
2018-05-04T08:46:37.527Z,45.3
2018-05-04T08:47:27.588Z,44.5
2018-05-04T08:48:18.862Z,44.1
2018-05-04T08:49:07.483Z,43.8
2018-05-04T08:49:58.054Z,43.6
2018-05-04T08:50:48.221Z,43.4
2018-05-04T08:51:38.173Z,43.3
2018-05-04T08:52:27.963Z,43.1
2018-05-04T08:53:18.024Z,42.8
2018-05-04T08:54:08.099Z,42.5
2018-05-04T08:54:58.444Z,42.1
2018-05-04T08:55:48.226Z,41.6
2018-05-04T08:56:38.298Z,41.3
2018-05-04T08:57:28.679Z,41.1
2018-05-04T08:58:18.704Z,40.9
2018-05-04T08:59:08.775Z,40.6
2018-05-04T08:59:58.842Z,40.4
2018-05-04T09:00:48.917Z,40.3
2018-05-04T09:01:38.939Z,40.3
2018-05-04T09:02:29.002Z,40.1
2018-05-04T09:03:18.804Z,39.9
2018-05-04T09:04:09.179Z,39.9
2018-05-04T09:04:59.224Z,39.9
2018-05-04T09:05:49.010Z,39.8
2018-05-04T09:06:39.367Z,39.8
2018-05-04T09:07:29.218Z,39.9
2018-05-04T09:08:19.512Z,40.3
2018-05-04T09:09:09.244Z,40.6
2018-05-04T09:09:59.618Z,40.9
2018-05-04T09:10:49.673Z,41.4
2018-05-04T09:11:39.719Z,41.8
2018-05-04T09:12:29.535Z,42.3
2018-05-04T09:13:19.892Z,42.7
2018-05-04T09:14:09.662Z,43.2
2018-05-04T09:14:59.993Z,43.9
2018-05-04T09:15:50.081Z,44.5
2018-05-04T09:16:40.132Z,44.9
2018-05-04T09:17:29.902Z,45.3
2018-05-04T09:18:19.988Z,45.5
2018-05-04T09:19:10.051Z,46.1
2018-05-04T09:20:00.401Z,46.8
2018-05-04T09:20:50.186Z,47.4
2018-05-04T09:21:40.234Z,47.8
2018-05-04T09:22:30.326Z,48.4
2018-05-04T09:23:20.643Z,49.3
2018-05-04T09:24:10.734Z,50.1
2018-05-04T09:25:00.781Z,50.6
2018-05-04T09:25:50.828Z,51.3
2018-05-04T09:26:40.347Z,52.1
2018-05-04T09:27:30.696Z,52.8
2018-05-04T09:28:20.765Z,53.4
2018-05-04T09:29:10.836Z,53.9
2018-05-04T09:30:00.894Z,54
2018-05-04T09:30:51.816Z,54.1
2018-05-04T09:31:41.309Z,54.2
2018-05-04T09:32:31.096Z,54.3
2018-05-04T09:33:21.431Z,54.6
2018-05-04T09:34:11.505Z,54.9
2018-05-04T09:35:01.583Z,55.4
2018-05-04T09:35:51.143Z,56
2018-05-04T09:36:41.438Z,56.6
2018-05-04T09:37:31.495Z,57.2
2018-05-04T09:38:21.550Z,57.7
2018-05-04T09:39:11.884Z,58.2
2018-05-04T09:40:01.977Z,58.6
2018-05-04T09:40:52.021Z,58.7
2018-05-04T09:43:22.397Z,58.5
2018-05-04T09:44:12.285Z,58.4
2018-05-04T09:45:02.383Z,58.4
2018-05-04T09:45:52.422Z,58.4
2018-05-04T09:46:42.216Z,58.3
2018-05-04T09:47:32.582Z,58.1
2018-05-04T09:48:22.618Z,58.1
2018-05-04T09:49:12.925Z,57.9
2018-05-04T09:50:02.754Z,57.4
2018-05-04T09:50:52.815Z,57.1
2018-05-04T09:51:42.865Z,56.6
2018-05-04T09:52:32.945Z,56.1
2018-05-04T09:53:22.529Z,55.7
2018-05-04T09:54:12.524Z,55.4
2018-05-04T09:55:03.138Z,55.2
2018-05-04T09:55:53.438Z,55.1
2018-05-04T09:56:43.279Z,54.9
2018-05-04T09:57:33.069Z,55.1
2018-05-04T09:58:23.390Z,55.3
2018-05-04T09:59:13.184Z,55.3
2018-05-04T10:00:03.540Z,55.3
2018-05-04T10:00:53.630Z,55.1
2018-05-04T10:01:43.725Z,54.9
2018-05-04T10:02:33.727Z,54.7
2018-05-04T10:03:23.802Z,54.5
2018-05-04T10:04:13.871Z,54.2
2018-05-04T10:05:03.947Z,53.9
2018-05-04T10:05:53.744Z,53.8
2018-05-04T10:06:43.784Z,53.6
2018-05-04T10:07:34.142Z,53.4
2018-05-04T10:08:23.910Z,53
2018-05-04T10:09:14.164Z,52.8
2018-05-04T10:10:04.342Z,52.7
2018-05-04T10:10:54.104Z,52.5
2018-05-04T10:11:44.442Z,52.3
2018-05-04T10:12:34.529Z,52.2
2018-05-04T10:13:24.580Z,52.1
2018-05-04T10:14:14.645Z,52.3
2018-05-04T10:15:04.444Z,52.6
2018-05-04T10:15:54.491Z,52.9
2018-05-04T10:16:44.844Z,53.3
2018-05-04T10:17:34.948Z,53.6
2018-05-04T10:18:24.711Z,53.9
2018-05-04T10:19:15.049Z,54.3
2018-05-04T10:20:04.865Z,54.8
2018-05-04T10:20:55.206Z,55.4
2018-05-04T10:21:45.251Z,56.1
2018-05-04T10:22:35.015Z,56.5
2018-05-04T10:23:24.866Z,56.9
2018-05-04T10:24:14.685Z,57.3
2018-05-04T10:25:05.503Z,57.6
2018-05-04T10:25:55.274Z,58
2018-05-04T10:26:45.096Z,58.3
2018-05-04T10:27:35.403Z,58.5
2018-05-04T10:28:25.496Z,58.8
2018-05-04T10:29:15.634Z,59.1
2018-05-04T10:30:05.900Z,59.3
2018-05-04T10:30:56.411Z,59.6
2018-05-04T10:31:46.006Z,59.8
2018-05-04T10:32:35.248Z,59.8
2018-05-04T10:33:26.141Z,59.8
2018-05-04T10:34:15.935Z,59.6
2018-05-04T10:35:06.333Z,59.5
2018-05-04T10:35:56.454Z,59.5
2018-05-04T10:36:46.125Z,59.3
2018-05-04T10:37:36.181Z,59.4
2018-05-04T10:38:26.909Z,59.8
2018-05-04T10:39:16.604Z,60.3
2018-05-04T10:40:06.406Z,60.6
2018-05-04T10:40:56.481Z,61.2
2018-05-04T10:41:46.815Z,61.6
2018-05-04T10:42:36.892Z,61.9
2018-05-04T10:43:26.983Z,62.1
2018-05-04T10:44:16.747Z,62.2
2018-05-04T10:45:07.461Z,62.2
2018-05-04T10:45:57.141Z,61.9
2018-05-04T10:46:47.205Z,61.1
2018-05-04T10:47:37.276Z,59.7
2018-05-04T10:48:27.072Z,58.3
2018-05-04T10:49:16.922Z,56.8
2018-05-04T10:50:07.542Z,55.7
2018-05-04T10:50:57.081Z,54.7
2018-05-04T10:51:47.038Z,53.9
2018-05-04T10:52:37.671Z,53.4
2018-05-04T10:53:27.742Z,53.1
2018-05-04T10:54:17.514Z,52.8
2018-05-04T10:55:07.871Z,52.5
2018-05-04T10:55:58.056Z,52.3
2018-05-04T10:56:48.065Z,52.1
2018-05-04T10:58:27.845Z,52.8
2018-05-04T10:59:18.184Z,53.1
2018-05-04T11:00:08.256Z,53.8
2018-05-04T11:00:57.762Z,54
2018-05-04T11:01:48.389Z,54
2018-05-04T11:02:38.172Z,54.1
2018-05-04T11:03:28.526Z,54.3
2018-05-04T11:04:18.613Z,54.2
2018-05-04T11:05:08.659Z,54.2
2018-05-04T11:05:58.735Z,54.6
2018-05-04T11:06:48.808Z,54.8
2018-05-04T11:07:38.857Z,54.8
2018-05-04T11:08:28.648Z,54.6
2018-05-04T11:09:19.005Z,54.4
2018-05-04T11:10:09.039Z,54.3
2018-05-04T11:10:59.112Z,53.9
2018-05-04T11:11:48.331Z,53.4
2018-05-04T11:12:38.701Z,53
2018-05-04T11:13:29.286Z,52.7
2018-05-04T11:14:19.389Z,52.4
2018-05-04T11:15:09.428Z,52.3
2018-05-04T11:15:59.509Z,52.3
2018-05-04T11:16:49.554Z,52.6